createdAt,value
2022-10-11T00:01:20.543Z,8.70
2022-10-11T00:03:47.260Z,6.15
2022-10-11T00:06:13.756Z,8.13
2022-10-11T00:08:40.283Z,7.82
2022-10-11T00:11:07.929Z,6.82
2022-10-11T00:13:34.970Z,4.90
2022-10-11T00:16:06.633Z,5.20
2022-10-11T00:18:33.356Z,3.58
2022-10-11T00:21:02.201Z,4.88
2022-10-11T00:23:28.845Z,8.02
2022-10-11T00:26:00.183Z,3.65
2022-10-11T00:28:26.905Z,5.80
2022-10-11T00:30:53.608Z,5.53
2022-10-11T00:33:20.236Z,4.57
2022-10-11T00:35:46.783Z,3.85
2022-10-11T00:38:13.442Z,5.47
2022-10-11T00:40:40.163Z,4.35
2022-10-11T00:43:19.472Z,4.80
2022-10-11T00:45:58.335Z,7.47
2022-10-11T00:48:44.526Z,5.05
2022-10-11T00:51:23.506Z,5.50
2022-10-11T00:53:51.470Z,6.10
2022-10-11T00:56:24.887Z,6.35
2022-10-11T00:58:52.742Z,8.15
2022-10-11T01:01:19.492Z,4.47
2022-10-11T01:03:46.995Z,7.68
2022-10-11T01:06:13.651Z,11.00
2022-10-11T01:08:40.555Z,13.40
2022-10-11T01:11:12.187Z,13.32
2022-10-11T01:14:03.176Z,16.02
2022-10-11T01:16:39.398Z,18.25
2022-10-11T01:19:08.923Z,14.88
2022-10-11T01:21:48.577Z,21.00
2022-10-11T01:30:03.802Z,15.32
2022-10-11T01:33:02.677Z,19.40
2022-10-11T01:35:49.186Z,16.65
2022-10-11T01:38:34.918Z,13.70
2022-10-11T01:41:10.179Z,10.93
2022-10-11T01:43:39.345Z,14.23
2022-10-11T01:46:08.617Z,27.58
2022-10-11T01:48:56.843Z,14.93
2022-10-11T01:51:29.939Z,17.17
2022-10-11T01:54:04.180Z,19.55
2022-10-11T01:56:52.042Z,23.20
2022-10-11T01:59:37.173Z,20.92
2022-10-11T02:02:40.953Z,18.80
2022-10-11T02:05:19.783Z,20.27
2022-10-11T02:07:58.676Z,16.05
2022-10-11T02:10:35.924Z,15.82
2022-10-11T02:13:09.402Z,21.45
2022-10-11T02:15:40.413Z,12.13
2022-10-11T02:18:15.997Z,13.02
2022-10-11T02:20:45.073Z,11.45
2022-10-11T02:23:23.308Z,13.07
2022-10-11T02:25:51.937Z,12.65
2022-10-11T02:28:25.650Z,11.13
2022-10-11T02:30:54.647Z,13.35
2022-10-11T02:33:27.378Z,10.23
2022-10-11T02:36:01.092Z,9.25
2022-10-11T02:38:34.167Z,11.95
2022-10-11T02:41:21.431Z,11.75
2022-10-11T02:43:57.555Z,8.43
2022-10-11T02:46:26.558Z,14.23
2022-10-11T02:48:54.060Z,7.20
2022-10-11T02:51:20.646Z,8.60
2022-10-11T02:53:47.497Z,9.15
2022-10-11T02:56:14.034Z,10.00
2022-10-11T02:58:40.628Z,11.73
2022-10-11T03:01:07.210Z,12.85
2022-10-11T03:03:33.810Z,10.25
2022-10-11T03:06:02.823Z,8.77
2022-10-11T03:08:29.877Z,10.98
2022-10-11T03:10:56.443Z,8.20
2022-10-11T03:13:23.112Z,12.40
2022-10-11T03:16:02.810Z,9.40
2022-10-11T03:18:34.014Z,8.82
2022-10-11T03:21:00.696Z,7.82
2022-10-11T03:23:27.343Z,8.98
2022-10-11T03:25:53.949Z,21.67
2022-10-11T03:28:21.285Z,13.45
2022-10-11T03:30:49.441Z,12.50
2022-10-11T03:33:17.160Z,14.15
2022-10-11T03:35:45.652Z,7.68
2022-10-11T03:38:22.126Z,10.88
2022-10-11T03:40:48.929Z,8.70
2022-10-11T03:43:15.924Z,21.13
2022-10-11T03:45:42.613Z,8.45
2022-10-11T03:48:09.744Z,11.18
2022-10-11T03:50:37.090Z,7.40
2022-10-11T03:53:05.037Z,10.00
2022-10-11T03:55:31.733Z,7.43
2022-10-11T03:57:58.306Z,18.05
2022-10-11T04:00:25.036Z,15.30
2022-10-11T04:02:51.536Z,6.40
2022-10-11T04:05:18.214Z,13.32
2022-10-11T04:07:44.812Z,6.47
2022-10-11T04:10:11.422Z,12.25
2022-10-11T04:12:39.132Z,11.15
2022-10-11T04:15:07.010Z,8.77
2022-10-11T04:17:33.628Z,5.78
2022-10-11T04:20:00.169Z,9.10
2022-10-11T04:22:26.764Z,8.13
2022-10-11T04:24:53.351Z,8.35
2022-10-11T04:27:19.991Z,13.63
2022-10-11T04:29:46.588Z,7.63
2022-10-11T04:32:13.144Z,7.68
2022-10-11T04:34:39.758Z,7.75
2022-10-11T04:37:06.409Z,9.30
2022-10-11T04:39:33.067Z,10.60
2022-10-11T04:41:59.611Z,11.77
2022-10-11T04:44:26.160Z,19.27
2022-10-11T04:46:53.041Z,16.50
2022-10-11T04:49:19.698Z,12.90
2022-10-11T04:51:46.220Z,14.10
2022-10-11T04:54:12.813Z,18.15
2022-10-11T04:56:39.622Z,21.33
2022-10-11T04:59:06.335Z,18.73
2022-10-11T05:01:33.075Z,18.70
2022-10-11T05:03:59.926Z,16.67
2022-10-11T05:06:26.622Z,12.50
2022-10-11T05:08:53.161Z,52.78
2022-10-11T05:11:19.877Z,16.65
2022-10-11T05:13:46.834Z,19.00
2022-10-11T05:16:14.625Z,31.98
2022-10-11T05:18:41.621Z,13.82
2022-10-11T05:21:14.413Z,17.42
2022-10-11T05:23:41.187Z,14.07
2022-10-11T05:26:08.206Z,15.57
2022-10-11T05:28:35.211Z,24.77
2022-10-11T05:31:01.838Z,20.27
2022-10-11T05:33:28.576Z,15.18
2022-10-11T05:35:55.210Z,16.55
2022-10-11T05:38:22.767Z,16.92
2022-10-11T05:40:50.129Z,20.63
2022-10-11T05:43:16.730Z,16.25
2022-10-11T05:45:44.556Z,17.77
2022-10-11T05:48:11.532Z,14.95
2022-10-11T05:50:39.218Z,18.27
2022-10-11T05:53:06.269Z,11.75
2022-10-11T05:55:40.590Z,11.05
2022-10-11T05:58:14.432Z,11.13
2022-10-11T06:00:41.326Z,15.88
2022-10-11T06:03:10.927Z,15.80
2022-10-11T06:05:37.861Z,50.10
2022-10-11T06:08:06.056Z,22.58
2022-10-11T06:10:33.093Z,36.03
2022-10-11T06:12:59.799Z,21.10
2022-10-11T06:15:26.745Z,16.50
2022-10-11T06:17:53.389Z,19.52
2022-10-11T06:20:19.984Z,33.25
2022-10-11T06:22:46.534Z,14.75
2022-10-11T06:25:13.118Z,28.35
2022-10-11T06:27:39.668Z,12.60
2022-10-11T06:30:07.351Z,14.43
2022-10-11T06:32:33.932Z,14.23
2022-10-11T06:35:00.526Z,14.63
2022-10-11T06:37:27.093Z,23.27
2022-10-11T06:39:53.663Z,17.88
2022-10-11T06:42:20.275Z,70.63
2022-10-11T06:44:46.902Z,18.63
2022-10-11T06:47:13.470Z,22.88
2022-10-11T06:49:40.020Z,19.27
2022-10-11T06:52:06.573Z,21.55
2022-10-11T06:54:33.145Z,21.67
2022-10-11T06:57:00.131Z,20.73
2022-10-11T06:59:26.644Z,17.20
2022-10-11T07:01:53.179Z,23.20
2022-10-11T07:04:19.680Z,20.65
2022-10-11T07:06:46.303Z,31.52
2022-10-11T07:09:12.982Z,25.52
2022-10-11T07:11:39.700Z,24.02
2022-10-11T07:14:07.996Z,26.05
2022-10-11T07:16:36.190Z,21.52
2022-10-11T07:19:04.753Z,19.25
2022-10-11T07:21:33.341Z,26.23
2022-10-11T07:24:00.352Z,13.85
2022-10-11T07:26:27.590Z,22.08
2022-10-11T07:28:54.287Z,12.45
2022-10-11T07:31:23.673Z,25.63
2022-10-11T07:33:50.250Z,18.90
2022-10-11T07:36:16.958Z,16.38
2022-10-11T07:38:45.534Z,27.70
2022-10-11T07:41:12.961Z,23.10
2022-10-11T07:43:40.137Z,18.83
2022-10-11T07:46:07.686Z,14.70
2022-10-11T07:48:36.518Z,26.40
2022-10-11T07:51:15.799Z,21.23
2022-10-11T07:53:44.527Z,13.60
2022-10-11T07:56:13.094Z,22.13
2022-10-11T07:58:41.284Z,15.88
2022-10-11T08:01:09.216Z,20.48
2022-10-11T08:03:37.149Z,15.50
2022-10-11T08:06:07.465Z,13.25
2022-10-11T08:08:34.596Z,16.67
2022-10-11T08:11:01.299Z,15.27
2022-10-11T08:13:28.199Z,14.32
2022-10-11T08:15:55.210Z,17.05
2022-10-11T08:18:21.898Z,20.88
2022-10-11T08:20:48.752Z,17.73
2022-10-11T08:23:17.295Z,16.30
2022-10-11T08:25:46.311Z,23.38
2022-10-11T08:28:20.876Z,22.30
2022-10-11T08:30:49.716Z,13.25
2022-10-11T08:33:17.761Z,21.47
2022-10-11T08:35:45.115Z,33.67
2022-10-11T08:38:11.922Z,26.45
2022-10-11T08:40:45.707Z,32.97
2022-10-11T08:43:26.025Z,23.35
2022-10-11T08:45:56.051Z,43.67
2022-10-11T08:48:41.573Z,19.85
2022-10-11T08:51:30.641Z,17.58
2022-10-11T08:54:07.221Z,20.17
2022-10-11T08:56:37.710Z,21.55
2022-10-11T08:59:09.304Z,20.15
2022-10-11T09:01:36.087Z,23.15
2022-10-11T09:04:03.651Z,26.23
2022-10-11T09:06:54.060Z,24.02
2022-10-11T09:09:50.032Z,20.70
2022-10-11T09:12:40.501Z,21.45
2022-10-11T09:15:24.424Z,22.08
2022-10-11T09:17:58.853Z,21.08
2022-10-11T09:20:31.451Z,24.77
2022-10-11T09:23:01.803Z,24.58
2022-10-11T09:25:34.928Z,21.67
2022-10-11T09:28:40.370Z,24.23
2022-10-11T09:31:10.010Z,25.45
2022-10-11T09:33:41.910Z,25.58
2022-10-11T09:36:44.393Z,25.27
2022-10-11T09:39:37.119Z,28.20
2022-10-11T09:42:11.501Z,32.60
2022-10-11T09:44:49.887Z,26.50
2022-10-11T09:47:24.269Z,30.95
2022-10-11T09:49:56.538Z,27.33
2022-10-11T09:52:24.095Z,27.08
2022-10-11T09:54:54.549Z,31.83
2022-10-11T09:57:25.982Z,27.25
2022-10-11T10:00:00.418Z,25.45
2022-10-11T10:02:38.312Z,27.90
2022-10-11T10:05:19.197Z,28.02
2022-10-11T10:08:10.372Z,23.70
2022-10-11T10:10:48.680Z,24.38
2022-10-11T10:13:25.502Z,25.08
2022-10-11T10:15:55.033Z,24.27
2022-10-11T10:18:33.269Z,30.25
2022-10-11T10:21:00.935Z,30.95
2022-10-11T10:23:34.753Z,29.00
2022-10-11T10:26:12.514Z,28.00
2022-10-11T10:28:53.514Z,29.05
2022-10-11T10:31:26.416Z,32.95
2022-10-11T10:33:54.630Z,29.98
2022-10-11T10:36:30.006Z,32.63
2022-10-11T10:39:05.861Z,35.05
2022-10-11T10:41:32.724Z,32.88
2022-10-11T10:44:00.620Z,29.73
2022-10-11T10:46:47.320Z,36.28
2022-10-11T10:52:29.352Z,34.67
2022-10-11T10:55:05.016Z,37.22
2022-10-11T10:57:40.838Z,35.35
2022-10-11T11:00:19.434Z,38.17
2022-10-11T11:02:52.380Z,40.10
2022-10-11T11:05:37.882Z,49.17
2022-10-11T11:08:16.607Z,43.97
2022-10-11T11:11:01.390Z,37.80
2022-10-11T11:13:40.677Z,37.70
2022-10-11T11:16:07.662Z,35.65
2022-10-11T11:18:51.781Z,35.20
2022-10-11T11:21:53.996Z,29.77
2022-10-11T11:24:51.630Z,33.17
2022-10-11T11:27:39.995Z,34.05
2022-10-11T11:30:09.660Z,29.38
2022-10-11T11:35:24.644Z,23.75
2022-10-11T11:38:00.303Z,27.35
2022-10-11T11:40:39.346Z,20.38
2022-10-11T11:43:26.966Z,21.83
2022-10-11T11:45:58.299Z,19.65
2022-10-11T11:48:26.681Z,21.83
2022-10-11T11:51:12.965Z,28.95
2022-10-11T11:54:15.307Z,35.67
2022-10-11T11:56:44.967Z,34.30
2022-10-11T12:02:03.805Z,24.55
2022-10-11T12:04:35.916Z,28.00
2022-10-11T12:07:16.337Z,28.98
2022-10-11T12:09:50.285Z,26.70
2022-10-11T12:12:36.118Z,23.23
2022-10-11T12:15:25.747Z,24.52
2022-10-11T12:17:58.154Z,20.63
2022-10-11T12:20:24.629Z,19.52
2022-10-11T12:23:01.308Z,17.65
2022-10-11T12:25:28.735Z,19.35
2022-10-11T12:28:21.080Z,17.95
2022-10-11T12:30:47.777Z,14.63
2022-10-11T12:33:21.311Z,17.17
2022-10-11T12:35:56.429Z,17.33
2022-10-11T12:38:34.481Z,17.63
2022-10-11T12:41:10.222Z,14.45
2022-10-11T12:44:09.040Z,15.55
2022-10-11T12:47:00.136Z,14.20
2022-10-11T12:49:46.029Z,13.73
2022-10-11T12:52:18.301Z,16.73
2022-10-11T12:54:51.877Z,16.40
2022-10-11T12:57:45.196Z,14.45
2022-10-11T13:00:27.878Z,13.93
2022-10-11T13:02:56.586Z,13.80
2022-10-11T13:05:23.105Z,17.03
2022-10-11T13:07:51.544Z,9.32
2022-10-11T13:10:25.022Z,15.15
2022-10-11T13:12:53.337Z,11.55
2022-10-11T13:15:22.630Z,14.10
2022-10-11T13:17:51.704Z,11.30
2022-10-11T13:20:23.769Z,12.73
2022-10-11T13:22:53.096Z,16.30
2022-10-11T13:27:51.219Z,14.05
2022-10-11T13:32:52.066Z,17.83
2022-10-11T13:35:34.423Z,11.38
2022-10-11T13:38:01.611Z,14.80
2022-10-11T13:40:29.483Z,10.57
2022-10-11T13:42:56.896Z,12.98
2022-10-11T13:45:26.148Z,15.32
2022-10-11T13:47:55.674Z,10.15
2022-10-11T13:53:22.873Z,12.32
2022-10-11T13:56:02.545Z,11.00
2022-10-11T13:58:42.438Z,10.60
2022-10-11T14:01:20.916Z,15.35
2022-10-11T14:03:55.813Z,7.63
2022-10-11T14:06:22.870Z,12.90
2022-10-11T14:08:56.722Z,17.50
2022-10-11T14:11:39.222Z,12.95
2022-10-11T14:14:29.189Z,13.15
2022-10-11T14:16:57.703Z,9.82
2022-10-11T14:19:24.429Z,16.73
2022-10-11T14:21:53.323Z,15.55
2022-10-11T14:24:21.713Z,13.00
2022-10-11T14:26:51.758Z,16.33
2022-10-11T14:29:31.076Z,7.72
2022-10-11T14:32:10.709Z,14.27
2022-10-11T14:34:37.771Z,14.48
2022-10-11T14:37:04.331Z,13.25
2022-10-11T14:39:32.477Z,12.57
2022-10-11T14:41:59.350Z,13.00
2022-10-11T14:44:26.190Z,15.27
2022-10-11T14:46:54.655Z,9.32
2022-10-11T14:49:25.135Z,12.00
2022-10-11T14:51:53.243Z,11.93
2022-10-11T14:54:24.244Z,11.95
2022-10-11T14:56:52.522Z,11.25
2022-10-11T14:59:21.777Z,9.63
2022-10-11T15:01:51.970Z,10.00
2022-10-11T15:04:22.144Z,9.00
2022-10-11T15:06:49.329Z,8.88
2022-10-11T15:09:17.089Z,13.93
2022-10-11T15:11:43.772Z,12.18
2022-10-11T15:14:10.266Z,14.50
2022-10-11T15:16:36.902Z,7.95
2022-10-11T15:19:03.730Z,11.90
2022-10-11T15:21:30.482Z,14.43
2022-10-11T15:23:57.108Z,10.77
2022-10-11T15:26:30.014Z,8.23
2022-10-11T15:28:57.770Z,6.88
2022-10-11T15:31:24.627Z,10.27
2022-10-11T15:33:51.426Z,10.73
2022-10-11T15:36:22.293Z,9.50
2022-10-11T15:38:49.414Z,6.82
2022-10-11T15:41:18.734Z,10.52
2022-10-11T15:43:47.013Z,7.20
2022-10-11T15:46:17.444Z,11.30
2022-10-11T15:48:45.287Z,9.55
2022-10-11T15:51:11.929Z,10.00
2022-10-11T15:53:39.619Z,11.43
2022-10-11T15:56:15.160Z,10.63
2022-10-11T15:58:42.099Z,6.95
2022-10-11T16:01:13.541Z,10.60
2022-10-11T16:03:40.540Z,7.15
2022-10-11T16:06:08.565Z,14.13
2022-10-11T16:08:36.015Z,18.90
2022-10-11T16:11:03.606Z,13.75
2022-10-11T16:13:30.334Z,16.30
2022-10-11T16:15:56.997Z,15.15
2022-10-11T16:18:24.031Z,15.82
2022-10-11T16:20:52.004Z,12.23
2022-10-11T16:23:20.898Z,13.52
2022-10-11T16:25:56.962Z,13.07
2022-10-11T16:28:23.762Z,11.38
2022-10-11T16:30:50.614Z,17.17
2022-10-11T16:33:17.140Z,17.10
2022-10-11T16:35:43.798Z,16.05
2022-10-11T16:38:12.802Z,17.73
2022-10-11T16:40:40.368Z,19.05
2022-10-11T16:43:08.170Z,13.32
2022-10-11T16:45:35.855Z,16.75
2022-10-11T16:48:03.866Z,14.82
2022-10-11T16:50:31.740Z,12.73
2022-10-11T16:53:00.054Z,13.23
2022-10-11T16:55:26.714Z,11.65
2022-10-11T16:57:53.271Z,13.48
2022-10-11T17:00:25.316Z,15.98
2022-10-11T17:05:50.115Z,18.08
2022-10-11T17:08:27.827Z,11.35
2022-10-11T17:11:32.512Z,17.77
2022-10-11T17:14:28.177Z,13.60
2022-10-11T17:16:56.138Z,17.00
2022-10-11T17:22:27.564Z,16.60
2022-10-11T17:24:54.438Z,12.30
2022-10-11T17:27:31.895Z,17.25
2022-10-11T17:30:10.954Z,13.80
2022-10-11T17:32:47.598Z,17.73
2022-10-11T17:35:14.666Z,11.80
2022-10-11T17:44:17.046Z,16.02
2022-10-11T17:50:38.441Z,13.83
2022-10-11T17:54:08.292Z,22.45
2022-10-11T17:59:42.488Z,19.52
2022-10-11T18:02:10.330Z,19.38
2022-10-11T18:04:37.676Z,18.45
2022-10-11T18:07:04.690Z,20.45
2022-10-11T18:09:33.204Z,21.80
2022-10-11T18:12:00.439Z,23.95
2022-10-11T18:14:27.698Z,24.92
2022-10-11T18:16:54.653Z,36.05
2022-10-11T18:19:22.178Z,35.03
2022-10-11T18:22:07.037Z,33.78
2022-10-11T18:24:55.959Z,35.57
2022-10-11T18:27:22.717Z,37.08
2022-10-11T18:29:49.376Z,32.50
2022-10-11T18:32:25.451Z,40.53
2022-10-11T18:34:57.916Z,49.03
2022-10-11T18:37:26.773Z,45.42
2022-10-11T18:39:54.252Z,41.67
2022-10-11T18:42:21.744Z,43.92
2022-10-11T18:44:49.695Z,41.22
2022-10-11T18:47:17.931Z,41.47
2022-10-11T18:49:44.494Z,31.02
2022-10-11T18:52:11.317Z,30.90
2022-10-11T18:54:39.717Z,37.65
2022-10-11T18:57:09.867Z,36.10
2022-10-11T18:59:37.556Z,29.75
2022-10-11T19:02:05.126Z,36.10
2022-10-11T19:04:34.619Z,36.75
2022-10-11T19:07:02.959Z,41.35
2022-10-11T19:09:31.070Z,40.53
2022-10-11T19:11:58.790Z,34.47
2022-10-11T19:14:30.409Z,29.77
2022-10-11T19:17:00.114Z,33.33
2022-10-11T19:19:29.418Z,25.73
2022-10-11T19:21:57.839Z,22.60
2022-10-11T19:24:27.355Z,25.73
2022-10-11T19:29:28.722Z,20.13
2022-10-11T19:31:57.822Z,28.60
2022-10-11T19:34:31.318Z,24.23
2022-10-11T19:37:00.667Z,27.92
2022-10-11T19:39:28.033Z,35.83
2022-10-11T19:41:54.855Z,28.13
2022-10-11T19:44:21.540Z,30.33
2022-10-11T19:46:52.483Z,28.25
2022-10-11T19:49:22.754Z,25.83
2022-10-11T19:54:17.070Z,31.90
2022-10-11T19:56:44.679Z,25.83
2022-10-11T19:59:12.141Z,30.63
2022-10-11T20:01:39.965Z,32.15
2022-10-11T20:04:22.612Z,32.40
2022-10-11T20:06:56.727Z,38.05
2022-10-11T20:09:31.081Z,29.52
2022-10-11T20:11:58.523Z,32.00
2022-10-11T20:14:25.289Z,30.30
2022-10-11T20:16:52.011Z,28.55
2022-10-11T20:19:18.793Z,22.52
2022-10-11T20:21:45.521Z,21.23
2022-10-11T20:24:12.381Z,20.20
2022-10-11T20:26:39.534Z,23.38
2022-10-11T20:29:06.475Z,24.23
2022-10-11T20:31:38.448Z,21.40
2022-10-11T20:34:07.259Z,23.77
2022-10-11T20:36:35.798Z,17.85
2022-10-11T20:39:02.552Z,21.90
2022-10-11T20:41:31.819Z,30.38
2022-10-11T20:43:59.888Z,22.25
2022-10-11T20:46:29.817Z,24.95
2022-10-11T20:49:08.141Z,26.17
2022-10-11T20:51:38.551Z,21.35
2022-10-11T20:54:05.457Z,27.60
2022-10-11T20:56:32.271Z,24.35
2022-10-11T20:58:59.413Z,28.17
2022-10-11T21:01:29.038Z,28.20
2022-10-11T21:06:24.201Z,26.67
2022-10-11T21:08:50.826Z,23.27
2022-10-11T21:11:17.415Z,33.40
2022-10-11T21:13:44.026Z,30.45
2022-10-11T21:16:16.056Z,28.33
2022-10-11T21:18:43.060Z,19.50
2022-10-11T21:21:14.608Z,25.35
2022-10-11T21:23:41.495Z,27.95
2022-10-11T21:26:11.299Z,24.42
2022-10-11T21:28:38.827Z,23.08
2022-10-11T21:31:10.997Z,27.70
2022-10-11T21:33:41.209Z,26.85
2022-10-11T21:36:11.250Z,19.92
2022-10-11T21:38:38.270Z,24.17
2022-10-11T21:41:06.882Z,26.30
2022-10-11T21:43:35.816Z,26.35
2022-10-11T21:46:47.955Z,26.92
2022-10-11T21:49:16.852Z,25.42
2022-10-11T21:51:43.492Z,29.33
2022-10-11T21:54:10.034Z,23.30
2022-10-11T21:56:36.650Z,28.88
2022-10-11T21:59:06.602Z,27.00
2022-10-11T22:01:36.765Z,25.98
2022-10-11T22:04:07.460Z,22.63
2022-10-11T22:06:34.974Z,24.75
2022-10-11T22:09:01.813Z,22.67
2022-10-11T22:11:28.489Z,22.38
2022-10-11T22:13:55.228Z,19.52
2022-10-11T22:16:21.794Z,23.08
2022-10-11T22:18:48.414Z,21.35
2022-10-11T22:21:18.110Z,22.13
2022-10-11T22:26:16.267Z,21.92
2022-10-11T22:28:43.338Z,22.17
2022-10-11T22:31:10.346Z,25.27
2022-10-11T22:33:37.463Z,27.58
2022-10-11T22:36:10.078Z,23.35
2022-10-11T22:38:38.382Z,24.88
2022-10-11T22:41:05.422Z,23.05
2022-10-11T22:43:32.400Z,22.85
2022-10-11T22:45:59.005Z,21.40
2022-10-11T22:48:25.763Z,21.90
2022-10-11T22:50:52.450Z,15.38
2022-10-11T22:53:19.392Z,21.17
2022-10-11T22:55:46.585Z,20.42
2022-10-11T22:58:13.513Z,23.23
2022-10-11T23:00:40.096Z,16.20
2022-10-11T23:03:09.624Z,24.48
2022-10-11T23:05:36.448Z,27.65
2022-10-11T23:08:02.979Z,20.80
2022-10-11T23:10:29.544Z,23.80
2022-10-11T23:12:56.129Z,23.00
2022-10-11T23:15:22.732Z,27.23
2022-10-11T23:17:49.329Z,29.27
2022-10-11T23:20:15.908Z,24.48
2022-10-11T23:22:42.434Z,19.70
2022-10-11T23:25:09.221Z,26.35
2022-10-11T23:27:36.111Z,18.77
2022-10-11T23:30:03.780Z,22.80
2022-10-11T23:32:30.537Z,19.95
2022-10-11T23:34:57.164Z,20.15
2022-10-11T23:37:23.759Z,24.00
2022-10-11T23:39:50.272Z,24.52
2022-10-11T23:42:16.785Z,15.50
2022-10-11T23:44:43.340Z,20.02
2022-10-11T23:47:09.894Z,17.35
2022-10-11T23:49:36.454Z,15.13
2022-10-11T23:52:03.015Z,16.33
2022-10-11T23:54:29.583Z,16.83
2022-10-11T23:56:56.272Z,15.18
2022-10-11T23:59:22.864Z,16.75
